Time;durP1;ratioP1;P1;durP2;ratioP2;P2;SDS_P1;SDS_P2;PMS_P1;PMS_P2;Temp;Humidity;BMP_temperature;BMP_pressure;BME280_temperature;BME280_humidity;BME280_pressure;Samples;Min_cycle;Max_cycle;Signal;HPM_P1;HPM_P2
2023/06/23 00:00:54;;;;;;;6.82;5.35;;;;;;;17.61;nan;100612.97;5006486;28;20055;-84
2023/06/23 00:03:22;;;;;;;6.95;5.43;;;;;;;17.52;nan;100617.91;5012298;28;20499;-84
2023/06/23 00:05:51;;;;;;;6.72;5.47;;;;;;;17.44;nan;100631.63;4994169;28;20507;-84
2023/06/23 00:08:19;;;;;;;8.23;6.20;;;;;;;17.32;nan;100635.78;5004989;28;20454;-84
2023/06/23 00:10:48;;;;;;;6.45;5.25;;;;;;;17.39;nan;100625.63;5028145;28;20041;-83
2023/06/23 00:13:18;;;;;;;6.63;5.22;;;;;;;17.39;nan;100630.97;4994158;28;20038;-83
2023/06/23 00:15:46;;;;;;;7.63;4.90;;;;;;;17.29;nan;100632.38;4997984;28;20037;-83
2023/06/23 00:18:13;;;;;;;8.20;5.95;;;;;;;17.30;nan;100626.09;5011275;28;20046;-83
2023/06/23 00:20:41;;;;;;;7.95;5.72;;;;;;;17.18;nan;100630.25;5000783;28;20052;-83
2023/06/23 00:23:12;;;;;;;7.10;4.82;;;;;;;17.24;nan;100605.06;4983891;28;20064;-85
2023/06/23 00:25:39;;;;;;;7.22;4.95;;;;;;;17.15;nan;100612.56;5009391;28;20511;-84
2023/06/23 00:28:06;;;;;;;7.15;5.13;;;;;;;16.92;nan;100609.28;5007905;28;20045;-83
2023/06/23 00:30:33;;;;;;;7.15;5.00;;;;;;;16.85;nan;100627.38;5010834;28;20052;-84
2023/06/23 00:33:00;;;;;;;5.40;4.75;;;;;;;16.92;nan;100634.16;5007986;28;20107;-82
2023/06/23 00:35:27;;;;;;;6.45;5.10;;;;;;;16.98;nan;100632.97;5025867;28;20430;-84
2023/06/23 00:37:55;;;;;;;6.90;5.03;;;;;;;16.98;nan;100638.31;5021178;28;20037;-83
2023/06/23 00:40:24;;;;;;;6.47;5.18;;;;;;;17.01;nan;100640.84;5004358;28;20606;-83
2023/06/23 00:42:54;;;;;;;6.30;4.80;;;;;;;17.10;nan;100632.41;5004759;28;20483;-85
2023/06/23 00:45:22;;;;;;;5.53;4.32;;;;;;;17.12;nan;100628.72;4996827;28;20040;-84
2023/06/23 00:47:52;;;;;;;5.53;5.00;;;;;;;16.92;nan;100633.28;4985913;28;20044;-82
2023/06/23 00:50:21;;;;;;;6.60;4.53;;;;;;;17.05;nan;100634.41;4996957;28;20049;-83
2023/06/23 00:52:55;;;;;;;6.28;4.50;;;;;;;16.97;nan;100631.25;5003532;28;20050;-83
2023/06/23 00:55:25;;;;;;;6.85;4.93;;;;;;;17.03;nan;100617.63;5013023;28;20046;-84
2023/06/23 00:57:54;;;;;;;5.75;4.70;;;;;;;17.05;nan;100605.06;5015150;28;20403;-82
2023/06/23 01:00:23;;;;;;;6.80;4.47;;;;;;;17.11;nan;100591.41;4996049;28;20049;-85
2023/06/23 01:03:02;;;;;;;7.25;5.00;;;;;;;17.06;nan;100586.28;5002952;28;20503;-84
2023/06/23 01:05:35;;;;;;;8.82;5.28;;;;;;;17.10;nan;100571.88;5005730;28;20037;-83
2023/06/23 01:08:08;;;;;;;8.45;5.05;;;;;;;16.92;nan;100585.25;5009598;28;20618;-82
2023/06/23 01:10:43;;;;;;;9.00;5.65;;;;;;;16.95;nan;100582.44;5019253;28;20041;-82
2023/06/23 01:13:18;;;;;;;5.15;4.65;;;;;;;16.92;nan;100575.44;5019189;28;20041;-84
2023/06/23 01:15:52;;;;;;;7.55;4.80;;;;;;;16.97;nan;100585.88;4992089;28;20050;-82
2023/06/23 01:18:31;;;;;;;6.32;4.80;;;;;;;16.96;nan;100597.50;5003114;28;20418;-82
2023/06/23 01:21:03;;;;;;;5.47;4.20;;;;;;;16.97;nan;100600.09;4992248;28;20048;-85
2023/06/23 01:23:47;;;;;;;6.63;4.63;;;;;;;16.90;nan;100612.00;5030600;28;20034;-85
2023/06/23 01:26:33;;;;;;;8.05;4.68;;;;;;;16.81;nan;100623.09;5012239;28;20040;-85
2023/06/23 01:29:10;;;;;;;5.70;4.67;;;;;;;16.77;nan;100634.88;5001182;28;20394;-83
2023/06/23 01:31:50;;;;;;;6.45;5.15;;;;;;;16.84;nan;100650.50;5024983;28;20640;-82
2023/06/23 01:34:25;;;;;;;6.60;4.97;;;;;;;16.87;nan;100638.81;5013889;28;20052;-82
2023/06/23 01:37:03;;;;;;;6.55;4.90;;;;;;;16.87;nan;100626.34;5009846;28;20030;-82
2023/06/23 01:39:32;;;;;;;9.02;5.13;;;;;;;16.96;nan;100613.50;4992327;28;20034;-82
2023/06/23 01:42:03;;;;;;;7.50;4.95;;;;;;;16.85;nan;100622.03;5000274;28;20045;-82
2023/06/23 01:44:32;;;;;;;5.80;4.57;;;;;;;16.92;nan;100635.97;5002225;28;20041;-84
2023/06/23 01:47:01;;;;;;;6.75;4.97;;;;;;;16.91;nan;100636.91;4993217;28;20040;-83
2023/06/23 01:49:36;;;;;;;6.18;5.57;;;;;;;17.01;nan;100625.72;4985102;28;20712;-84
2023/06/23 01:52:04;;;;;;;6.13;5.32;;;;;;;17.01;nan;100616.84;4998736;28;20042;-82
2023/06/23 01:54:32;;;;;;;6.82;5.05;;;;;;;16.85;nan;100604.22;5011453;28;20045;-85
2023/06/23 01:57:00;;;;;;;6.13;5.13;;;;;;;16.89;nan;100588.91;5020243;28;20037;-83
2023/06/23 01:59:27;;;;;;;7.97;4.80;;;;;;;16.84;nan;100573.13;4994653;28;20534;-83
2023/06/23 02:01:55;;;;;;;6.88;5.15;;;;;;;16.89;nan;100565.75;5001476;28;20038;-82
2023/06/23 02:04:22;;;;;;;6.18;4.88;;;;;;;16.81;nan;100565.25;5010559;28;20048;-81
2023/06/23 02:06:50;;;;;;;6.25;4.90;;;;;;;16.83;nan;100552.72;4993625;28;20030;-82
2023/06/23 02:09:22;;;;;;;7.95;5.35;;;;;;;16.82;nan;100567.00;5008855;28;20034;-83
2023/06/23 02:11:50;;;;;;;6.95;5.15;;;;;;;16.76;nan;100566.44;5008386;28;20044;-84
2023/06/23 02:14:18;;;;;;;6.28;5.15;;;;;;;16.80;nan;100566.19;5011567;28;20049;-83
2023/06/23 02:16:46;;;;;;;6.07;4.97;;;;;;;16.80;nan;100558.19;5003481;28;20466;-83
2023/06/23 02:19:14;;;;;;;5.82;4.82;;;;;;;16.70;nan;100556.91;5006532;28;20038;-83
2023/06/23 02:21:42;;;;;;;5.50;4.55;;;;;;;16.78;nan;100549.41;4984890;28;20526;-84
2023/06/23 02:24:10;;;;;;;9.00;4.97;;;;;;;16.76;nan;100543.28;4987617;28;20041;-84
2023/06/23 02:26:38;;;;;;;7.53;5.43;;;;;;;16.73;nan;100529.22;5012693;28;20037;-83
2023/06/23 02:29:06;;;;;;;7.00;5.40;;;;;;;16.76;nan;100534.41;5002636;28;20038;-83
2023/06/23 02:31:33;;;;;;;7.68;5.28;;;;;;;16.89;nan;100540.88;5003531;28;20047;-84
2023/06/23 02:34:01;;;;;;;7.10;5.40;;;;;;;16.75;nan;100538.03;4974084;28;20415;-82
2023/06/23 02:36:47;;;;;;;7.43;5.03;;;;;;;16.75;nan;100544.22;5007321;28;20030;-82
2023/06/23 02:39:26;;;;;;;6.72;5.55;;;;;;;16.69;nan;100536.50;4983407;28;20045;-83
2023/06/23 02:41:54;;;;;;;5.82;4.75;;;;;;;16.77;nan;100531.69;4995479;28;20034;-82
2023/06/23 02:44:26;;;;;;;6.63;4.63;;;;;;;16.77;nan;100515.66;4995713;28;20423;-83
2023/06/23 02:46:56;;;;;;;5.75;4.32;;;;;;;16.81;nan;100517.22;4977692;28;20412;-83
2023/06/23 02:49:30;;;;;;;9.30;5.00;;;;;;;16.68;nan;100518.75;5020405;28;20047;-82
2023/06/23 02:52:01;;;;;;;5.95;4.72;;;;;;;16.71;nan;100533.75;5002533;28;20034;-82
2023/06/23 02:54:32;;;;;;;6.20;4.40;;;;;;;16.69;nan;100551.66;5020513;28;20522;-81
2023/06/23 02:56:59;;;;;;;6.15;5.25;;;;;;;16.68;nan;100558.75;4989119;28;20042;-82
2023/06/23 02:59:27;;;;;;;7.70;5.40;;;;;;;16.73;nan;100556.78;4992909;28;20056;-84
2023/06/23 03:01:56;;;;;;;6.43;5.70;;;;;;;16.79;nan;100551.13;5013532;28;20647;-82
2023/06/23 03:04:23;;;;;;;7.15;5.20;;;;;;;16.88;nan;100548.03;4996039;28;20046;-83
2023/06/23 03:06:51;;;;;;;6.78;5.45;;;;;;;16.75;nan;100548.69;4995631;28;20562;-83
2023/06/23 03:09:18;;;;;;;6.60;5.57;;;;;;;16.75;nan;100552.22;4994991;28;20037;-83
2023/06/23 03:11:45;;;;;;;8.05;5.18;;;;;;;16.77;nan;100549.50;4992662;28;20048;-81
2023/06/23 03:14:12;;;;;;;8.57;5.45;;;;;;;16.80;nan;100554.66;4992879;28;20038;-82
2023/06/23 03:17:02;;;;;;;7.32;5.30;;;;;;;16.79;nan;100572.47;4995845;28;20082;-81
2023/06/23 03:19:39;;;;;;;8.43;5.50;;;;;;;16.84;nan;100574.94;4992865;28;20052;-82
2023/06/23 03:22:10;;;;;;;6.35;4.93;;;;;;;16.77;nan;100578.84;5012880;28;20052;-83
2023/06/23 03:24:43;;;;;;;7.63;5.30;;;;;;;16.83;nan;100587.41;4996321;28;20050;-84
2023/06/23 03:27:11;;;;;;;6.68;5.60;;;;;;;16.95;nan;100598.44;4986433;28;20046;-81
2023/06/23 03:29:40;;;;;;;6.22;5.47;;;;;;;16.84;nan;100598.97;4987127;28;20048;-84
2023/06/23 03:32:11;;;;;;;5.88;4.90;;;;;;;16.86;nan;100597.94;4991372;28;20050;-83
2023/06/23 03:34:43;;;;;;;6.00;4.70;;;;;;;16.76;nan;100603.78;5016031;28;20029;-82
2023/06/23 03:37:13;;;;;;;7.65;5.15;;;;;;;16.76;nan;100603.78;5018288;28;20069;-82
2023/06/23 03:39:42;;;;;;;11.60;5.40;;;;;;;16.76;nan;100604.66;4995263;28;20056;-83
2023/06/23 03:42:09;;;;;;;7.78;4.65;;;;;;;16.83;nan;100591.91;5011643;28;20042;-82
2023/06/23 03:44:44;;;;;;;7.35;5.00;;;;;;;16.80;nan;100598.22;5009671;28;20052;-83
2023/06/23 03:47:17;;;;;;;7.72;5.50;;;;;;;16.82;nan;100592.84;4980608;28;20736;-83
2023/06/23 03:50:08;;;;;;;9.50;5.05;;;;;;;16.86;nan;100584.59;5010786;28;20068;-82
2023/06/23 03:52:37;;;;;;;7.40;4.40;;;;;;;16.91;nan;100581.72;4999592;28;20049;-81
2023/06/23 03:55:07;;;;;;;6.07;4.60;;;;;;;16.98;nan;100590.28;4973317;28;20042;-80
2023/06/23 03:57:35;;;;;;;8.52;5.22;;;;;;;16.99;nan;100594.69;4989098;28;20030;-83
2023/06/23 04:00:03;;;;;;;7.68;4.90;;;;;;;16.86;nan;100602.41;5004307;28;20496;-83
2023/06/23 04:02:31;;;;;;;8.82;5.30;;;;;;;16.83;nan;100600.75;4999748;28;20038;-82
2023/06/23 04:04:59;;;;;;;6.18;4.55;;;;;;;16.65;nan;100606.03;5000862;28;20048;-84
2023/06/23 04:07:27;;;;;;;7.00;5.03;;;;;;;16.79;nan;100598.28;4998481;28;20535;-83
2023/06/23 04:09:55;;;;;;;6.95;4.15;;;;;;;16.82;nan;100611.50;5007351;28;20045;-84
2023/06/23 04:12:23;;;;;;;6.47;4.43;;;;;;;16.79;nan;100608.97;4983742;28;20061;-82
2023/06/23 04:14:52;;;;;;;7.90;4.70;;;;;;;16.88;nan;100613.88;5001086;28;20040;-84
2023/06/23 04:17:21;;;;;;;6.50;5.05;;;;;;;16.92;nan;100619.94;4984500;28;20410;-82
2023/06/23 04:19:50;;;;;;;10.57;5.85;;;;;;;17.05;nan;100623.75;4978102;28;20042;-85
2023/06/23 04:22:19;;;;;;;6.15;4.75;;;;;;;16.96;nan;100629.53;4976826;28;20038;-83
2023/06/23 04:24:47;;;;;;;6.25;4.32;;;;;;;16.93;nan;100629.69;5000552;28;20057;-82
2023/06/23 04:27:16;;;;;;;6.38;4.53;;;;;;;16.83;nan;100631.91;5019393;28;20042;-83
2023/06/23 04:29:45;;;;;;;7.57;4.30;;;;;;;16.95;nan;100630.47;5001615;28;20036;-82
2023/06/23 04:32:13;;;;;;;5.68;4.28;;;;;;;17.00;nan;100632.00;5001972;28;20034;-82
2023/06/23 04:34:42;;;;;;;6.40;4.30;;;;;;;16.92;nan;100623.47;4986297;28;20054;-83
2023/06/23 04:37:19;;;;;;;6.57;4.60;;;;;;;17.05;nan;100631.75;4986915;28;20046;-82
2023/06/23 04:39:51;;;;;;;6.47;5.22;;;;;;;17.06;nan;100634.34;5020437;28;20054;-82
2023/06/23 04:42:23;;;;;;;9.55;4.75;;;;;;;17.10;nan;100635.94;4995750;28;20046;-83
2023/06/23 04:44:53;;;;;;;7.03;5.22;;;;;;;17.16;nan;100640.13;5013083;28;20034;-84
2023/06/23 04:47:22;;;;;;;7.50;4.57;;;;;;;17.12;nan;100646.53;5010642;28;20041;-83
2023/06/23 04:49:53;;;;;;;8.10;4.63;;;;;;;17.17;nan;100644.53;5015666;28;20036;-84
2023/06/23 04:52:21;;;;;;;7.53;4.45;;;;;;;17.17;nan;100645.41;5014061;28;20509;-85
2023/06/23 04:54:48;;;;;;;4.85;4.32;;;;;;;17.13;nan;100651.81;4998522;28;20517;-84
2023/06/23 04:57:18;;;;;;;5.80;4.28;;;;;;;17.15;nan;100654.38;5027112;28;20038;-83
2023/06/23 04:59:51;;;;;;;7.55;4.10;;;;;;;17.29;nan;100654.59;5031573;28;20531;-81
2023/06/23 05:02:20;;;;;;;10.48;5.40;;;;;;;17.22;nan;100649.63;4983153;28;20052;-84
2023/06/23 05:04:49;;;;;;;6.20;5.20;;;;;;;17.16;nan;100653.47;5007774;28;20055;-82
2023/06/23 05:07:17;;;;;;;6.00;4.32;;;;;;;17.18;nan;100656.94;5002242;28;20496;-81
2023/06/23 05:09:49;;;;;;;7.60;4.65;;;;;;;17.28;nan;100660.03;5001808;28;20113;-84
2023/06/23 05:12:19;;;;;;;6.72;4.50;;;;;;;17.31;nan;100667.88;4999021;28;20038;-83
2023/06/23 05:14:48;;;;;;;5.65;4.50;;;;;;;17.29;nan;100677.78;5009077;28;20518;-84
2023/06/23 05:17:15;;;;;;;6.72;5.10;;;;;;;17.20;nan;100675.53;4993956;28;20048;-84
2023/06/23 05:19:43;;;;;;;6.45;4.65;;;;;;;17.23;nan;100678.91;5003632;28;20042;-84
2023/06/23 05:22:13;;;;;;;6.13;4.45;;;;;;;17.22;nan;100677.19;4994959;28;20041;-83
2023/06/23 05:24:43;;;;;;;4.18;3.78;;;;;;;17.20;nan;100675.53;4993999;28;20038;-84
2023/06/23 05:27:10;;;;;;;8.15;5.25;;;;;;;17.28;nan;100681.38;4999495;28;20611;-86
2023/06/23 05:29:47;;;;;;;6.03;4.45;;;;;;;17.31;nan;100690.09;5021529;28;20047;-84
2023/06/23 05:32:17;;;;;;;8.15;4.53;;;;;;;17.22;nan;100687.00;5013672;28;20043;-82
2023/06/23 05:34:48;;;;;;;6.13;5.10;;;;;;;17.28;nan;100686.72;5003451;28;20037;-85
2023/06/23 05:37:17;;;;;;;5.75;5.07;;;;;;;17.40;nan;100696.81;5013004;28;20042;-85
2023/06/23 05:39:46;;;;;;;6.68;4.60;;;;;;;17.34;nan;100694.44;5004909;28;20048;-84
2023/06/23 05:42:13;;;;;;;7.40;5.43;;;;;;;17.22;nan;100703.88;5021826;28;20041;-85
2023/06/23 05:44:40;;;;;;;6.80;4.82;;;;;;;17.27;nan;100704.56;5020955;28;20725;-85
2023/06/23 05:47:10;;;;;;;6.72;5.18;;;;;;;17.29;nan;100705.34;5001035;28;20052;-86
2023/06/23 05:49:40;;;;;;;9.10;5.60;;;;;;;17.34;nan;100710.47;4998283;28;20503;-85
2023/06/23 05:52:11;;;;;;;6.53;4.45;;;;;;;17.31;nan;100708.78;4999693;28;20750;-85
2023/06/23 05:54:39;;;;;;;6.85;5.20;;;;;;;17.37;nan;100707.66;4999429;28;20034;-84
2023/06/23 05:57:18;;;;;;;8.15;5.90;;;;;;;17.34;nan;100703.31;5007047;28;20491;-84
2023/06/23 05:59:46;;;;;;;8.85;5.30;;;;;;;17.24;nan;100698.50;5012085;28;20402;-86
2023/06/23 06:02:19;;;;;;;11.70;4.90;;;;;;;17.31;nan;100697.25;4983339;28;20038;-85
2023/06/23 06:04:49;;;;;;;7.53;5.30;;;;;;;17.32;nan;100696.31;5011334;28;20414;-84
2023/06/23 06:07:17;;;;;;;7.40;5.15;;;;;;;17.20;nan;100695.09;4995564;28;20057;-83
2023/06/23 06:09:45;;;;;;;7.20;5.70;;;;;;;17.13;nan;100704.31;5011833;28;20037;-84
2023/06/23 06:12:12;;;;;;;8.68;4.93;;;;;;;17.10;nan;100704.47;5019439;28;20034;-85
2023/06/23 06:14:40;;;;;;;8.43;5.55;;;;;;;17.07;nan;100715.31;5004356;28;20053;-85
2023/06/23 06:17:08;;;;;;;9.43;5.82;;;;;;;16.99;nan;100721.00;4990523;28;20411;-85
2023/06/23 06:19:37;;;;;;;8.82;5.95;;;;;;;16.96;nan;100726.47;5014101;28;20055;-83
2023/06/23 06:22:06;;;;;;;9.38;6.07;;;;;;;16.82;nan;100727.09;4999672;28;20569;-84
2023/06/23 06:24:34;;;;;;;10.73;5.65;;;;;;;16.78;nan;100729.97;5002467;28;20502;-83
2023/06/23 06:27:02;;;;;;;10.13;5.82;;;;;;;16.82;nan;100727.09;4983476;28;20037;-83
2023/06/23 06:29:30;;;;;;;7.38;5.32;;;;;;;16.75;nan;100727.44;5029608;28;20127;-86
2023/06/23 06:31:57;;;;;;;7.70;6.00;;;;;;;16.78;nan;100725.50;4999358;28;20401;-83
2023/06/23 06:34:25;;;;;;;9.40;5.25;;;;;;;16.83;nan;100719.97;4993644;28;20038;-85
2023/06/23 06:36:54;;;;;;;7.78;5.35;;;;;;;16.81;nan;100719.16;5001854;28;20046;-84
2023/06/23 06:39:21;;;;;;;11.10;5.50;;;;;;;16.90;nan;100718.75;5002205;28;20042;-84
2023/06/23 06:41:49;;;;;;;8.80;5.93;;;;;;;16.90;nan;100724.09;5013893;28;20035;-82
2023/06/23 06:44:16;;;;;;;7.80;5.72;;;;;;;16.88;nan;100726.81;5024679;28;20044;-82
2023/06/23 06:46:43;;;;;;;10.73;6.15;;;;;;;16.96;nan;100741.59;4985512;28;20111;-83
2023/06/23 06:49:11;;;;;;;8.38;5.72;;;;;;;16.97;nan;100741.53;5001030;28;20038;-83
2023/06/23 06:51:40;;;;;;;8.00;5.93;;;;;;;16.99;nan;100744.16;4993328;28;20046;-83
2023/06/23 06:54:07;;;;;;;10.65;6.75;;;;;;;16.95;nan;100743.41;5007870;28;20049;-83
2023/06/23 06:56:34;;;;;;;8.88;6.30;;;;;;;16.82;nan;100740.44;4991135;28;20034;-84
2023/06/23 06:59:02;;;;;;;8.07;6.25;;;;;;;16.93;nan;100750.63;4998605;28;20037;-84
2023/06/23 07:01:29;;;;;;;6.75;6.05;;;;;;;16.86;nan;100744.69;5026759;28;20045;-85
2023/06/23 07:03:57;;;;;;;9.00;6.55;;;;;;;16.91;nan;100743.63;4987406;28;20045;-84
2023/06/23 07:06:25;;;;;;;8.68;6.03;;;;;;;16.91;nan;100735.63;5003609;28;20041;-84
2023/06/23 07:08:52;;;;;;;11.15;6.93;;;;;;;16.93;nan;100739.09;4993346;28;20077;-83
2023/06/23 07:11:19;;;;;;;13.88;9.40;;;;;;;16.94;nan;100743.50;5009379;28;20036;-82
2023/06/23 07:13:46;;;;;;;8.43;6.60;;;;;;;17.01;nan;100742.28;4976815;28;20046;-82
2023/06/23 07:16:13;;;;;;;7.95;6.65;;;;;;;17.06;nan;100750.91;4994619;28;20044;-82
2023/06/23 07:18:41;;;;;;;7.45;6.35;;;;;;;16.95;nan;100755.91;4978034;28;20037;-85
2023/06/23 07:21:10;;;;;;;10.18;6.93;;;;;;;17.03;nan;100745.75;4994849;28;20057;-83
2023/06/23 07:23:37;;;;;;;8.57;6.60;;;;;;;17.03;nan;100751.94;4997616;28;20235;-83
2023/06/23 07:26:05;;;;;;;7.55;6.30;;;;;;;17.03;nan;100749.28;5005838;28;20045;-84
2023/06/23 07:28:32;;;;;;;9.52;6.90;;;;;;;17.08;nan;100751.75;5003917;28;20036;-83
2023/06/23 07:30:59;;;;;;;9.18;6.68;;;;;;;17.15;nan;100751.41;5019394;28;20038;-83
2023/06/23 07:33:26;;;;;;;8.50;6.78;;;;;;;17.31;nan;100756.84;4997773;28;20044;-83
2023/06/23 07:35:54;;;;;;;8.32;7.05;;;;;;;17.28;nan;100749.00;5017326;28;20038;-82
2023/06/23 07:38:21;;;;;;;7.88;6.20;;;;;;;17.37;nan;100748.56;5013065;28;20021;-84
2023/06/23 07:40:48;;;;;;;6.88;6.15;;;;;;;17.39;nan;100759.19;4994751;28;20048;-82
2023/06/23 07:43:15;;;;;;;7.65;6.07;;;;;;;17.55;nan;100748.63;4999140;28;20060;-83
2023/06/23 07:45:42;;;;;;;8.35;6.15;;;;;;;17.47;nan;100757.00;4994499;28;20034;-82
2023/06/23 07:48:09;;;;;;;8.50;6.72;;;;;;;17.64;nan;100754.41;4975185;28;20039;-82
2023/06/23 07:50:36;;;;;;;7.03;6.32;;;;;;;17.69;nan;100756.84;5018599;28;20041;-83
2023/06/23 07:53:03;;;;;;;7.30;6.60;;;;;;;17.71;nan;100758.53;5004390;28;20037;-83
2023/06/23 07:55:30;;;;;;;6.68;5.97;;;;;;;17.77;nan;100767.22;4978661;28;20050;-82
2023/06/23 07:57:57;;;;;;;8.32;5.90;;;;;;;17.78;nan;100771.63;5015960;28;20036;-83
2023/06/23 08:00:24;;;;;;;7.18;6.30;;;;;;;17.81;nan;100764.31;4998395;28;20034;-83
2023/06/23 08:02:51;;;;;;;9.23;6.43;;;;;;;17.70;nan;100766.63;5013853;28;20030;-86
2023/06/23 08:05:18;;;;;;;7.25;6.00;;;;;;;17.72;nan;100762.06;5001075;28;20037;-84
2023/06/23 08:07:45;;;;;;;8.23;6.35;;;;;;;17.76;nan;100766.34;5012961;28;20044;-84
2023/06/23 08:10:12;;;;;;;8.85;6.72;;;;;;;17.79;nan;100770.66;4996792;28;20056;-83
2023/06/23 08:12:39;;;;;;;8.10;6.25;;;;;;;17.80;nan;100770.59;4978340;28;20048;-84
2023/06/23 08:15:07;;;;;;;9.70;6.43;;;;;;;17.75;nan;100774.44;4992487;28;20415;-83
2023/06/23 08:17:34;;;;;;;8.45;6.90;;;;;;;17.87;nan;100777.38;4999074;28;20037;-83
2023/06/23 08:20:01;;;;;;;8.35;6.22;;;;;;;17.84;nan;100782.88;5010555;28;20446;-82
2023/06/23 08:22:29;;;;;;;9.07;7.05;;;;;;;17.82;nan;100782.06;5010420;28;20048;-83
2023/06/23 08:24:56;;;;;;;8.80;7.68;;;;;;;17.88;nan;100778.22;5002643;28;20387;-82
2023/06/23 08:27:23;;;;;;;8.27;6.75;;;;;;;18.00;nan;100783.88;5001204;28;20060;-84
2023/06/23 08:29:50;;;;;;;11.05;7.40;;;;;;;17.96;nan;100792.09;5002350;28;20029;-83
2023/06/23 08:32:16;;;;;;;8.35;6.75;;;;;;;17.92;nan;100788.72;5001546;28;20047;-83
2023/06/23 08:34:43;;;;;;;10.38;7.95;;;;;;;17.86;nan;100789.00;5001996;28;20496;-83
2023/06/23 08:37:10;;;;;;;10.25;7.82;;;;;;;17.92;nan;100802.09;5016896;28;20064;-82
2023/06/23 08:39:37;;;;;;;8.48;6.55;;;;;;;17.95;nan;100806.41;4984369;28;20056;-84
2023/06/23 08:42:05;;;;;;;8.90;6.85;;;;;;;17.96;nan;100819.69;5003801;28;20033;-85
2023/06/23 08:44:35;;;;;;;7.82;6.63;;;;;;;17.88;nan;100827.22;5003093;28;20046;-83
2023/06/23 08:47:04;;;;;;;9.93;7.63;;;;;;;17.94;nan;100821.56;5009027;28;20045;-84
2023/06/23 08:49:38;;;;;;;8.48;7.38;;;;;;;17.82;nan;100829.31;5000277;28;20038;-82
2023/06/23 08:52:05;;;;;;;9.05;7.43;;;;;;;17.77;nan;100832.22;4997653;28;20045;-83
2023/06/23 08:54:32;;;;;;;8.35;6.88;;;;;;;17.76;nan;100835.84;4996791;28;20131;-82
2023/06/23 08:56:59;;;;;;;9.68;7.25;;;;;;;17.81;nan;100836.47;4993880;28;20050;-83
2023/06/23 08:59:26;;;;;;;10.18;7.93;;;;;;;17.88;nan;100837.91;5008319;28;20529;-82
2023/06/23 09:01:53;;;;;;;8.65;6.72;;;;;;;17.89;nan;100842.31;4986045;28;20045;-82
2023/06/23 09:04:20;;;;;;;11.35;8.35;;;;;;;17.84;nan;100843.47;5001824;28;20051;-82
2023/06/23 09:06:48;;;;;;;9.20;7.10;;;;;;;17.92;nan;100855.53;4993780;28;20045;-82
2023/06/23 09:09:14;;;;;;;8.90;6.80;;;;;;;17.89;nan;100854.81;5010342;28;20040;-82
2023/06/23 09:11:42;;;;;;;12.10;7.57;;;;;;;18.02;nan;100849.75;5000382;28;20052;-81
2023/06/23 09:14:10;;;;;;;8.48;6.57;;;;;;;17.98;nan;100847.22;5013871;28;20042;-82
2023/06/23 09:16:38;;;;;;;9.70;7.18;;;;;;;17.95;nan;100841.16;5017615;28;20095;-81
2023/06/23 09:19:07;;;;;;;11.75;7.47;;;;;;;18.07;nan;100845.03;5009315;28;20425;-81
2023/06/23 09:21:36;;;;;;;9.68;7.45;;;;;;;17.99;nan;100845.41;5011119;28;20045;-82
2023/06/23 09:24:05;;;;;;;12.30;7.57;;;;;;;18.00;nan;100840.00;5010254;28;20043;-81
2023/06/23 09:26:45;;;;;;;8.15;6.63;;;;;;;17.99;nan;100848.97;5021880;28;20044;-81
2023/06/23 09:29:22;;;;;;;9.45;7.03;;;;;;;17.92;nan;100857.34;5022358;28;20040;-82
2023/06/23 09:31:50;;;;;;;9.68;7.13;;;;;;;17.91;nan;100851.13;5005918;28;20653;-81
2023/06/23 09:34:30;;;;;;;11.25;6.93;;;;;;;17.96;nan;100850.91;5023294;28;20048;-81
2023/06/23 09:37:11;;;;;;;9.80;7.10;;;;;;;18.05;nan;100861.16;5001159;28;20394;-81
2023/06/23 09:39:40;;;;;;;9.60;7.15;;;;;;;18.10;nan;100859.13;5014525;28;20038;-81
2023/06/23 09:42:11;;;;;;;10.07;7.78;;;;;;;18.04;nan;100858.56;5028183;28;20041;-83
2023/06/23 09:44:40;;;;;;;8.73;7.78;;;;;;;18.01;nan;100859.59;5002784;28;20790;-82
2023/06/23 09:47:07;;;;;;;9.52;6.63;;;;;;;18.09;nan;100856.53;4995467;28;20407;-83
2023/06/23 09:49:39;;;;;;;8.88;6.22;;;;;;;18.21;nan;100859.47;5019792;28;20037;-82
2023/06/23 09:52:06;;;;;;;8.70;6.90;;;;;;;18.35;nan;100861.47;4994730;28;20041;-83
2023/06/23 09:54:39;;;;;;;7.35;6.18;;;;;;;18.48;nan;100859.91;5012620;28;20038;-82
2023/06/23 09:57:08;;;;;;;8.38;5.82;;;;;;;18.54;nan;100869.44;5011573;28;20038;-82
2023/06/23 09:59:39;;;;;;;8.95;6.47;;;;;;;18.66;nan;100873.34;5004630;28;20410;-83
2023/06/23 10:02:08;;;;;;;6.80;5.93;;;;;;;18.75;nan;100863.06;5000324;28;20044;-84
2023/06/23 10:04:36;;;;;;;8.50;5.05;;;;;;;18.82;nan;100864.44;5006052;28;20038;-84
2023/06/23 10:07:21;;;;;;;5.47;4.28;;;;;;;18.87;nan;100860.69;5004025;28;20514;-84
2023/06/23 10:09:59;;;;;;;7.07;4.00;;;;;;;18.82;nan;100860.91;4997183;28;20099;-84
2023/06/23 10:12:48;;;;;;;8.70;4.50;;;;;;;18.66;nan;100867.97;4994447;28;20030;-84
2023/06/23 10:15:15;;;;;;;6.25;4.32;;;;;;;18.72;nan;100863.19;4974171;28;20419;-83
2023/06/23 10:17:43;;;;;;;5.85;4.22;;;;;;;18.76;nan;100864.78;4994259;28;20042;-83
2023/06/23 10:20:11;;;;;;;6.25;3.72;;;;;;;18.72;nan;100871.22;4996419;28;20045;-84
2023/06/23 10:22:39;;;;;;;5.00;3.65;;;;;;;18.85;nan;100874.16;5002260;28;20046;-85
2023/06/23 10:25:09;;;;;;;5.78;4.35;;;;;;;18.91;nan;100870.28;5012750;28;20124;-83
2023/06/23 10:27:37;;;;;;;5.40;3.47;;;;;;;18.87;nan;100876.75;4992022;28;20111;-84
2023/06/23 10:30:04;;;;;;;4.05;3.25;;;;;;;18.90;nan;100885.47;4981255;28;20485;-85
2023/06/23 10:32:34;;;;;;;5.00;3.25;;;;;;;18.88;nan;100878.47;5008565;28;20116;-82
2023/06/23 10:35:08;;;;;;;4.75;3.40;;;;;;;18.92;nan;100880.94;5003141;28;20037;-85
2023/06/23 10:37:38;;;;;;;4.43;3.30;;;;;;;18.98;nan;100888.63;4998158;28;20037;-85
2023/06/23 10:40:18;;;;;;;5.40;3.40;;;;;;;18.93;nan;100903.22;5029949;28;20089;-82
2023/06/23 10:42:48;;;;;;;5.28;3.30;;;;;;;19.08;nan;100902.38;4991139;28;20041;-83
2023/06/23 10:45:15;;;;;;;3.85;3.30;;;;;;;19.05;nan;100902.56;5003322;28;20050;-84
2023/06/23 10:47:44;;;;;;;7.63;3.70;;;;;;;18.95;nan;100898.63;5003521;28;20525;-84
2023/06/23 10:50:12;;;;;;;5.97;4.07;;;;;;;19.00;nan;100901.91;4997029;28;20030;-83
2023/06/23 10:52:39;;;;;;;4.78;3.70;;;;;;;18.93;nan;100905.88;4992615;28;20037;-83
2023/06/23 10:55:33;;;;;;;6.18;3.90;;;;;;;19.09;nan;100899.66;4992704;28;20036;-83
2023/06/23 10:58:08;;;;;;;4.53;3.85;;;;;;;19.01;nan;100901.00;4994906;28;20037;-83
2023/06/23 11:00:35;;;;;;;5.10;3.88;;;;;;;18.98;nan;100911.84;5016801;28;20049;-82
2023/06/23 11:03:10;;;;;;;6.25;4.43;;;;;;;18.90;nan;100906.88;4980347;28;20050;-84
2023/06/23 11:05:43;;;;;;;4.65;3.72;;;;;;;18.90;nan;100904.22;4997775;28;20041;-83
2023/06/23 11:08:13;;;;;;;6.18;4.45;;;;;;;18.79;nan;100909.25;5011145;28;20049;-83
2023/06/23 11:10:52;;;;;;;5.22;4.07;;;;;;;18.79;nan;100907.44;4990282;28;20050;-83
2023/06/23 11:13:19;;;;;;;5.05;3.95;;;;;;;18.79;nan;100911.94;4992249;28;20045;-83
2023/06/23 11:15:54;;;;;;;7.72;4.45;;;;;;;18.69;nan;100902.63;5001809;28;20038;-83
2023/06/23 11:18:22;;;;;;;7.40;4.82;;;;;;;18.62;nan;100901.16;5000372;28;20049;-83
2023/06/23 11:20:50;;;;;;;7.63;4.65;;;;;;;18.52;nan;100908.78;5000707;28;20032;-83
2023/06/23 11:23:18;;;;;;;4.90;4.32;;;;;;;18.50;nan;100913.38;4999888;28;20042;-85
2023/06/23 11:25:49;;;;;;;6.60;4.90;;;;;;;18.55;nan;100917.53;4993961;28;20050;-85
2023/06/23 11:28:38;;;;;;;8.85;5.00;;;;;;;18.55;nan;100913.97;5002673;28;20042;-83
2023/06/23 11:31:07;;;;;;;8.10;5.45;;;;;;;18.51;nan;100925.78;4998478;28;20644;-85
2023/06/23 11:33:38;;;;;;;8.80;5.78;;;;;;;18.58;nan;100924.53;5004157;28;20033;-84
2023/06/23 11:36:08;;;;;;;8.32;5.82;;;;;;;18.63;nan;100922.50;5012154;28;20038;-84
2023/06/23 11:38:36;;;;;;;6.88;5.63;;;;;;;18.77;nan;100928.06;5000570;28;20041;-84
2023/06/23 11:41:03;;;;;;;7.97;5.50;;;;;;;18.80;nan;100927.91;4974388;28;20482;-84
2023/06/23 11:43:32;;;;;;;9.10;5.82;;;;;;;18.91;nan;100935.38;4996132;28;20042;-84
2023/06/23 11:46:10;;;;;;;8.25;5.80;;;;;;;18.98;nan;100934.13;5001921;28;20045;-85
2023/06/23 11:48:37;;;;;;;8.15;6.18;;;;;;;18.92;nan;100941.59;5004514;28;20139;-87
2023/06/23 11:51:06;;;;;;;9.75;5.60;;;;;;;19.09;nan;100942.50;5002371;28;20049;-84
2023/06/23 11:53:34;;;;;;;7.93;5.53;;;;;;;19.12;nan;100952.19;5000426;28;20056;-85